sensor_id;sensor_type;location;lat;lon;timestamp;P1;durP1;ratioP1;P2;durP2;ratioP2
9208;SDS011;4639;48.862;9.188;2023-11-21T00:01:57;194.73;;;182.00;;
9208;SDS011;4639;48.862;9.188;2023-11-21T00:04:23;203.48;;;189.88;;
9208;SDS011;4639;48.862;9.188;2023-11-21T00:06:49;203.38;;;190.25;;
9208;SDS011;4639;48.862;9.188;2023-11-21T00:09:15;206.70;;;192.95;;
9208;SDS011;4639;48.862;9.188;2023-11-21T00:11:42;186.52;;;174.48;;
9208;SDS011;4639;48.862;9.188;2023-11-21T00:14:09;201.30;;;188.38;;
9208;SDS011;4639;48.862;9.188;2023-11-21T00:16:35;192.60;;;180.05;;
9208;SDS011;4639;48.862;9.188;2023-11-21T00:19:01;213.27;;;199.23;;
9208;SDS011;4639;48.862;9.188;2023-11-21T00:21:26;201.98;;;188.82;;
9208;SDS011;4639;48.862;9.188;2023-11-21T00:23:52;199.80;;;186.75;;
9208;SDS011;4639;48.862;9.188;2023-11-21T00:26:18;191.50;;;179.07;;
9208;SDS011;4639;48.862;9.188;2023-11-21T00:28:43;181.30;;;169.45;;
9208;SDS011;4639;48.862;9.188;2023-11-21T00:31:09;185.85;;;173.77;;
9208;SDS011;4639;48.862;9.188;2023-11-21T00:33:34;191.65;;;179.32;;
9208;SDS011;4639;48.862;9.188;2023-11-21T00:36:00;196.10;;;183.45;;
9208;SDS011;4639;48.862;9.188;2023-11-21T00:38:26;203.07;;;189.63;;
9208;SDS011;4639;48.862;9.188;2023-11-21T00:40:52;208.68;;;195.18;;
9208;SDS011;4639;48.862;9.188;2023-11-21T00:43:21;184.32;;;172.50;;
9208;SDS011;4639;48.862;9.188;2023-11-21T00:45:47;193.35;;;180.48;;
9208;SDS011;4639;48.862;9.188;2023-11-21T00:48:15;208.80;;;195.38;;
9208;SDS011;4639;48.862;9.188;2023-11-21T00:50:40;203.00;;;189.75;;
9208;SDS011;4639;48.862;9.188;2023-11-21T00:53:06;185.45;;;173.55;;
9208;SDS011;4639;48.862;9.188;2023-11-21T00:55:32;248.68;;;231.30;;
9208;SDS011;4639;48.862;9.188;2023-11-21T00:57:58;206.70;;;193.10;;
9208;SDS011;4639;48.862;9.188;2023-11-21T01:00:24;207.70;;;194.52;;
9208;SDS011;4639;48.862;9.188;2023-11-21T01:02:50;186.00;;;173.85;;
9208;SDS011;4639;48.862;9.188;2023-11-21T01:05:16;196.52;;;183.10;;
9208;SDS011;4639;48.862;9.188;2023-11-21T01:07:42;208.20;;;194.50;;
9208;SDS011;4639;48.862;9.188;2023-11-21T01:10:07;204.65;;;191.48;;
9208;SDS011;4639;48.862;9.188;2023-11-21T01:12:35;216.45;;;202.23;;
9208;SDS011;4639;48.862;9.188;2023-11-21T01:15:02;202.40;;;189.35;;
9208;SDS011;4639;48.862;9.188;2023-11-21T01:17:34;182.50;;;170.50;;
9208;SDS011;4639;48.862;9.188;2023-11-21T01:20:01;190.68;;;178.20;;
9208;SDS011;4639;48.862;9.188;2023-11-21T01:22:28;201.90;;;188.70;;
9208;SDS011;4639;48.862;9.188;2023-11-21T01:24:53;199.70;;;186.68;;
9208;SDS011;4639;48.862;9.188;2023-11-21T01:27:19;216.52;;;201.88;;
9208;SDS011;4639;48.862;9.188;2023-11-21T01:29:45;265.90;;;247.25;;
9208;SDS011;4639;48.862;9.188;2023-11-21T01:32:11;195.40;;;182.65;;
9208;SDS011;4639;48.862;9.188;2023-11-21T01:34:36;212.90;;;199.32;;
9208;SDS011;4639;48.862;9.188;2023-11-21T01:37:02;218.90;;;204.77;;
9208;SDS011;4639;48.862;9.188;2023-11-21T01:39:29;226.32;;;211.68;;
9208;SDS011;4639;48.862;9.188;2023-11-21T01:41:56;220.65;;;206.40;;
9208;SDS011;4639;48.862;9.188;2023-11-21T01:44:23;265.15;;;247.05;;
9208;SDS011;4639;48.862;9.188;2023-11-21T01:46:49;207.60;;;194.18;;
9208;SDS011;4639;48.862;9.188;2023-11-21T01:49:16;205.95;;;192.18;;
9208;SDS011;4639;48.862;9.188;2023-11-21T01:51:43;215.23;;;201.20;;
9208;SDS011;4639;48.862;9.188;2023-11-21T01:54:14;184.70;;;172.68;;
9208;SDS011;4639;48.862;9.188;2023-11-21T01:56:42;188.93;;;176.52;;
9208;SDS011;4639;48.862;9.188;2023-11-21T01:59:10;191.38;;;178.88;;
9208;SDS011;4639;48.862;9.188;2023-11-21T02:01:36;192.27;;;180.00;;
9208;SDS011;4639;48.862;9.188;2023-11-21T02:04:02;184.00;;;171.95;;
9208;SDS011;4639;48.862;9.188;2023-11-21T02:06:28;180.50;;;168.80;;
9208;SDS011;4639;48.862;9.188;2023-11-21T02:08:56;170.50;;;159.38;;
9208;SDS011;4639;48.862;9.188;2023-11-21T02:11:21;166.55;;;155.77;;
9208;SDS011;4639;48.862;9.188;2023-11-21T02:13:47;169.88;;;159.02;;
9208;SDS011;4639;48.862;9.188;2023-11-21T02:16:15;185.32;;;173.48;;
9208;SDS011;4639;48.862;9.188;2023-11-21T02:18:40;194.52;;;181.75;;
9208;SDS011;4639;48.862;9.188;2023-11-21T02:21:06;164.82;;;153.73;;
9208;SDS011;4639;48.862;9.188;2023-11-21T02:23:32;167.05;;;156.05;;
9208;SDS011;4639;48.862;9.188;2023-11-21T02:25:58;167.52;;;156.43;;
9208;SDS011;4639;48.862;9.188;2023-11-21T02:28:29;156.73;;;146.75;;
9208;SDS011;4639;48.862;9.188;2023-11-21T02:30:54;165.35;;;154.98;;
9208;SDS011;4639;48.862;9.188;2023-11-21T02:33:21;175.63;;;164.65;;
9208;SDS011;4639;48.862;9.188;2023-11-21T02:35:47;163.10;;;152.43;;
9208;SDS011;4639;48.862;9.188;2023-11-21T02:38:13;185.30;;;173.05;;
9208;SDS011;4639;48.862;9.188;2023-11-21T02:40:39;176.18;;;164.93;;
9208;SDS011;4639;48.862;9.188;2023-11-21T02:43:04;173.18;;;162.02;;
9208;SDS011;4639;48.862;9.188;2023-11-21T02:45:31;188.68;;;176.40;;
9208;SDS011;4639;48.862;9.188;2023-11-21T02:47:56;174.15;;;163.27;;
9208;SDS011;4639;48.862;9.188;2023-11-21T02:50:22;172.88;;;161.65;;
9208;SDS011;4639;48.862;9.188;2023-11-21T02:52:48;202.13;;;189.27;;
9208;SDS011;4639;48.862;9.188;2023-11-21T02:55:14;217.75;;;204.25;;
9208;SDS011;4639;48.862;9.188;2023-11-21T02:57:40;216.95;;;203.15;;
9208;SDS011;4639;48.862;9.188;2023-11-21T03:00:05;212.27;;;198.77;;
9208;SDS011;4639;48.862;9.188;2023-11-21T03:02:33;208.98;;;195.90;;
9208;SDS011;4639;48.862;9.188;2023-11-21T03:05:01;198.25;;;185.45;;
9208;SDS011;4639;48.862;9.188;2023-11-21T03:07:27;190.80;;;179.00;;
9208;SDS011;4639;48.862;9.188;2023-11-21T03:09:52;186.35;;;174.60;;
9208;SDS011;4639;48.862;9.188;2023-11-21T03:12:18;211.68;;;198.27;;
9208;SDS011;4639;48.862;9.188;2023-11-21T03:14:44;202.55;;;189.85;;
9208;SDS011;4639;48.862;9.188;2023-11-21T03:17:10;203.48;;;190.50;;
9208;SDS011;4639;48.862;9.188;2023-11-21T03:19:36;198.48;;;186.15;;
9208;SDS011;4639;48.862;9.188;2023-11-21T03:22:02;200.93;;;188.07;;
9208;SDS011;4639;48.862;9.188;2023-11-21T03:24:29;216.45;;;202.80;;
9208;SDS011;4639;48.862;9.188;2023-11-21T03:26:54;199.90;;;187.30;;
9208;SDS011;4639;48.862;9.188;2023-11-21T03:29:21;203.13;;;189.98;;
9208;SDS011;4639;48.862;9.188;2023-11-21T03:31:46;203.27;;;190.20;;
9208;SDS011;4639;48.862;9.188;2023-11-21T03:34:16;198.63;;;186.13;;
9208;SDS011;4639;48.862;9.188;2023-11-21T03:36:48;190.75;;;178.52;;
9208;SDS011;4639;48.862;9.188;2023-11-21T03:39:13;190.57;;;178.50;;
9208;SDS011;4639;48.862;9.188;2023-11-21T03:41:39;195.18;;;182.82;;
9208;SDS011;4639;48.862;9.188;2023-11-21T03:44:04;207.05;;;193.70;;
9208;SDS011;4639;48.862;9.188;2023-11-21T03:46:30;237.85;;;222.93;;
9208;SDS011;4639;48.862;9.188;2023-11-21T03:48:55;258.35;;;241.93;;
9208;SDS011;4639;48.862;9.188;2023-11-21T03:51:21;263.65;;;246.55;;
9208;SDS011;4639;48.862;9.188;2023-11-21T03:53:47;249.68;;;233.70;;
9208;SDS011;4639;48.862;9.188;2023-11-21T03:56:13;222.80;;;208.60;;
9208;SDS011;4639;48.862;9.188;2023-11-21T03:58:39;234.68;;;219.80;;
9208;SDS011;4639;48.862;9.188;2023-11-21T04:01:05;238.45;;;223.13;;
9208;SDS011;4639;48.862;9.188;2023-11-21T04:03:30;216.02;;;202.45;;
9208;SDS011;4639;48.862;9.188;2023-11-21T04:05:56;202.55;;;189.82;;
9208;SDS011;4639;48.862;9.188;2023-11-21T04:08:22;189.38;;;177.43;;
9208;SDS011;4639;48.862;9.188;2023-11-21T04:10:47;211.68;;;198.05;;
9208;SDS011;4639;48.862;9.188;2023-11-21T04:13:13;214.48;;;200.82;;
9208;SDS011;4639;48.862;9.188;2023-11-21T04:15:39;215.50;;;202.13;;
9208;SDS011;4639;48.862;9.188;2023-11-21T04:18:04;221.73;;;207.57;;
9208;SDS011;4639;48.862;9.188;2023-11-21T04:20:30;209.70;;;196.23;;
9208;SDS011;4639;48.862;9.188;2023-11-21T04:22:55;186.25;;;174.25;;
9208;SDS011;4639;48.862;9.188;2023-11-21T04:25:21;187.82;;;175.55;;
9208;SDS011;4639;48.862;9.188;2023-11-21T04:27:48;183.63;;;171.73;;
9208;SDS011;4639;48.862;9.188;2023-11-21T04:30:14;202.88;;;190.00;;
9208;SDS011;4639;48.862;9.188;2023-11-21T04:32:40;173.30;;;162.45;;
9208;SDS011;4639;48.862;9.188;2023-11-21T04:35:06;179.13;;;167.88;;
9208;SDS011;4639;48.862;9.188;2023-11-21T04:37:33;206.85;;;193.50;;
9208;SDS011;4639;48.862;9.188;2023-11-21T04:39:59;207.85;;;194.30;;
9208;SDS011;4639;48.862;9.188;2023-11-21T04:42:25;204.93;;;191.70;;
9208;SDS011;4639;48.862;9.188;2023-11-21T04:44:50;180.65;;;168.90;;
9208;SDS011;4639;48.862;9.188;2023-11-21T04:47:17;184.50;;;172.73;;
9208;SDS011;4639;48.862;9.188;2023-11-21T04:49:45;181.93;;;169.75;;
9208;SDS011;4639;48.862;9.188;2023-11-21T04:52:14;164.90;;;154.05;;
9208;SDS011;4639;48.862;9.188;2023-11-21T04:54:39;187.00;;;175.02;;
9208;SDS011;4639;48.862;9.188;2023-11-21T04:57:05;165.65;;;154.77;;
9208;SDS011;4639;48.862;9.188;2023-11-21T04:59:32;175.20;;;163.93;;
9208;SDS011;4639;48.862;9.188;2023-11-21T05:01:58;177.38;;;165.88;;
9208;SDS011;4639;48.862;9.188;2023-11-21T05:04:25;177.00;;;165.48;;
9208;SDS011;4639;48.862;9.188;2023-11-21T05:06:50;193.63;;;181.32;;
9208;SDS011;4639;48.862;9.188;2023-11-21T05:09:16;192.68;;;180.57;;
9208;SDS011;4639;48.862;9.188;2023-11-21T05:11:42;185.15;;;173.35;;
9208;SDS011;4639;48.862;9.188;2023-11-21T05:14:08;198.68;;;186.07;;
9208;SDS011;4639;48.862;9.188;2023-11-21T05:16:34;173.60;;;162.80;;
9208;SDS011;4639;48.862;9.188;2023-11-21T05:19:00;196.25;;;183.98;;
9208;SDS011;4639;48.862;9.188;2023-11-21T05:21:26;195.57;;;182.82;;
9208;SDS011;4639;48.862;9.188;2023-11-21T05:23:52;189.55;;;177.38;;
9208;SDS011;4639;48.862;9.188;2023-11-21T05:26:18;189.60;;;177.57;;
9208;SDS011;4639;48.862;9.188;2023-11-21T05:28:43;213.23;;;199.35;;
9208;SDS011;4639;48.862;9.188;2023-11-21T05:31:09;207.10;;;193.73;;
9208;SDS011;4639;48.862;9.188;2023-11-21T05:33:35;178.45;;;167.18;;
9208;SDS011;4639;48.862;9.188;2023-11-21T05:36:01;178.23;;;166.82;;
9208;SDS011;4639;48.862;9.188;2023-11-21T05:38:27;186.93;;;174.95;;
9208;SDS011;4639;48.862;9.188;2023-11-21T05:40:53;180.65;;;169.20;;
9208;SDS011;4639;48.862;9.188;2023-11-21T05:43:19;172.68;;;161.48;;
9208;SDS011;4639;48.862;9.188;2023-11-21T05:45:44;167.82;;;157.00;;
9208;SDS011;4639;48.862;9.188;2023-11-21T05:48:10;187.52;;;175.25;;
9208;SDS011;4639;48.862;9.188;2023-11-21T05:50:36;170.55;;;159.30;;
9208;SDS011;4639;48.862;9.188;2023-11-21T05:53:02;173.85;;;162.63;;
9208;SDS011;4639;48.862;9.188;2023-11-21T05:55:28;168.38;;;157.35;;
9208;SDS011;4639;48.862;9.188;2023-11-21T05:57:54;194.68;;;182.05;;
9208;SDS011;4639;48.862;9.188;2023-11-21T06:00:20;162.93;;;152.25;;
9208;SDS011;4639;48.862;9.188;2023-11-21T06:02:47;181.35;;;169.32;;
9208;SDS011;4639;48.862;9.188;2023-11-21T06:05:16;151.73;;;141.85;;
9208;SDS011;4639;48.862;9.188;2023-11-21T06:07:43;143.38;;;134.27;;
9208;SDS011;4639;48.862;9.188;2023-11-21T06:10:10;155.23;;;145.20;;
9208;SDS011;4639;48.862;9.188;2023-11-21T06:12:37;154.43;;;144.45;;
9208;SDS011;4639;48.862;9.188;2023-11-21T06:15:05;149.75;;;139.82;;
9208;SDS011;4639;48.862;9.188;2023-11-21T06:17:33;141.80;;;132.68;;
9208;SDS011;4639;48.862;9.188;2023-11-21T06:20:02;135.30;;;126.55;;
9208;SDS011;4639;48.862;9.188;2023-11-21T06:22:34;148.48;;;138.70;;
9208;SDS011;4639;48.862;9.188;2023-11-21T06:25:00;148.85;;;138.85;;
9208;SDS011;4639;48.862;9.188;2023-11-21T06:27:27;151.02;;;140.88;;
9208;SDS011;4639;48.862;9.188;2023-11-21T06:29:53;147.65;;;137.50;;
9208;SDS011;4639;48.862;9.188;2023-11-21T06:32:18;153.75;;;143.65;;
9208;SDS011;4639;48.862;9.188;2023-11-21T06:34:45;166.60;;;155.60;;
9208;SDS011;4639;48.862;9.188;2023-11-21T06:37:11;153.70;;;143.55;;
9208;SDS011;4639;48.862;9.188;2023-11-21T06:39:37;166.48;;;155.65;;
9208;SDS011;4639;48.862;9.188;2023-11-21T06:42:03;158.43;;;148.07;;
9208;SDS011;4639;48.862;9.188;2023-11-21T06:44:29;156.05;;;145.93;;
9208;SDS011;4639;48.862;9.188;2023-11-21T06:46:56;142.35;;;133.02;;
9208;SDS011;4639;48.862;9.188;2023-11-21T06:49:21;161.07;;;150.93;;
9208;SDS011;4639;48.862;9.188;2023-11-21T06:51:48;154.00;;;144.15;;
9208;SDS011;4639;48.862;9.188;2023-11-21T06:54:13;159.63;;;149.15;;
9208;SDS011;4639;48.862;9.188;2023-11-21T06:56:39;156.15;;;145.55;;
9208;SDS011;4639;48.862;9.188;2023-11-21T06:59:05;165.70;;;154.48;;
9208;SDS011;4639;48.862;9.188;2023-11-21T07:01:31;163.35;;;152.65;;
9208;SDS011;4639;48.862;9.188;2023-11-21T07:04:03;163.48;;;152.70;;
9208;SDS011;4639;48.862;9.188;2023-11-21T07:06:30;169.80;;;158.82;;
9208;SDS011;4639;48.862;9.188;2023-11-21T07:08:56;162.65;;;151.90;;
9208;SDS011;4639;48.862;9.188;2023-11-21T07:11:22;152.20;;;142.15;;
9208;SDS011;4639;48.862;9.188;2023-11-21T07:13:47;154.38;;;144.20;;
9208;SDS011;4639;48.862;9.188;2023-11-21T07:16:13;150.10;;;140.23;;
9208;SDS011;4639;48.862;9.188;2023-11-21T07:18:40;149.57;;;139.35;;
9208;SDS011;4639;48.862;9.188;2023-11-21T07:21:05;136.88;;;128.00;;
9208;SDS011;4639;48.862;9.188;2023-11-21T07:23:32;170.07;;;159.00;;
9208;SDS011;4639;48.862;9.188;2023-11-21T07:25:57;165.18;;;154.20;;
9208;SDS011;4639;48.862;9.188;2023-11-21T07:28:24;159.93;;;149.73;;
9208;SDS011;4639;48.862;9.188;2023-11-21T07:30:50;157.50;;;147.38;;
9208;SDS011;4639;48.862;9.188;2023-11-21T07:33:16;162.88;;;152.52;;
9208;SDS011;4639;48.862;9.188;2023-11-21T07:35:42;169.00;;;157.65;;
9208;SDS011;4639;48.862;9.188;2023-11-21T07:38:08;156.50;;;146.25;;
9208;SDS011;4639;48.862;9.188;2023-11-21T07:40:33;150.93;;;141.18;;
9208;SDS011;4639;48.862;9.188;2023-11-21T07:42:59;159.75;;;149.38;;
9208;SDS011;4639;48.862;9.188;2023-11-21T07:45:25;166.27;;;155.23;;
9208;SDS011;4639;48.862;9.188;2023-11-21T07:47:53;171.25;;;160.25;;
9208;SDS011;4639;48.862;9.188;2023-11-21T07:50:19;206.68;;;193.52;;
9208;SDS011;4639;48.862;9.188;2023-11-21T07:52:45;199.60;;;186.95;;
9208;SDS011;4639;48.862;9.188;2023-11-21T07:55:11;188.88;;;176.27;;
9208;SDS011;4639;48.862;9.188;2023-11-21T07:57:37;182.52;;;171.13;;
9208;SDS011;4639;48.862;9.188;2023-11-21T08:00:03;214.43;;;200.93;;
9208;SDS011;4639;48.862;9.188;2023-11-21T08:02:34;220.68;;;206.27;;
9208;SDS011;4639;48.862;9.188;2023-11-21T08:04:59;221.00;;;207.20;;
9208;SDS011;4639;48.862;9.188;2023-11-21T08:07:25;224.27;;;209.65;;
9208;SDS011;4639;48.862;9.188;2023-11-21T08:09:51;215.77;;;201.82;;
9208;SDS011;4639;48.862;9.188;2023-11-21T08:12:17;208.55;;;195.35;;
9208;SDS011;4639;48.862;9.188;2023-11-21T08:14:45;274.13;;;256.35;;
9208;SDS011;4639;48.862;9.188;2023-11-21T08:17:10;284.80;;;265.88;;
9208;SDS011;4639;48.862;9.188;2023-11-21T08:19:36;282.17;;;263.25;;
9208;SDS011;4639;48.862;9.188;2023-11-21T08:22:02;306.02;;;284.88;;
9208;SDS011;4639;48.862;9.188;2023-11-21T08:24:28;273.20;;;254.73;;
9208;SDS011;4639;48.862;9.188;2023-11-21T08:26:55;277.05;;;259.05;;
9208;SDS011;4639;48.862;9.188;2023-11-21T08:29:21;269.30;;;251.43;;
9208;SDS011;4639;48.862;9.188;2023-11-21T08:31:48;265.38;;;248.02;;
9208;SDS011;4639;48.862;9.188;2023-11-21T08:34:13;284.30;;;265.48;;
9208;SDS011;4639;48.862;9.188;2023-11-21T08:36:42;265.58;;;247.95;;
9208;SDS011;4639;48.862;9.188;2023-11-21T08:39:08;273.48;;;255.70;;
9208;SDS011;4639;48.862;9.188;2023-11-21T08:41:34;252.80;;;235.98;;
9208;SDS011;4639;48.862;9.188;2023-11-21T08:44:01;261.27;;;244.43;;
9208;SDS011;4639;48.862;9.188;2023-11-21T08:46:31;274.25;;;256.35;;
9208;SDS011;4639;48.862;9.188;2023-11-21T08:48:59;276.90;;;258.55;;
9208;SDS011;4639;48.862;9.188;2023-11-21T08:51:26;269.10;;;250.65;;
9208;SDS011;4639;48.862;9.188;2023-11-21T08:53:51;275.73;;;256.92;;
9208;SDS011;4639;48.862;9.188;2023-11-21T08:56:18;296.58;;;276.25;;
9208;SDS011;4639;48.862;9.188;2023-11-21T08:58:45;274.95;;;256.55;;
9208;SDS011;4639;48.862;9.188;2023-11-21T09:01:11;292.70;;;272.75;;
9208;SDS011;4639;48.862;9.188;2023-11-21T09:03:37;283.80;;;264.20;;
9208;SDS011;4639;48.862;9.188;2023-11-21T09:06:03;259.90;;;242.00;;
9208;SDS011;4639;48.862;9.188;2023-11-21T09:08:29;264.60;;;246.35;;
9208;SDS011;4639;48.862;9.188;2023-11-21T09:10:55;264.95;;;247.00;;
9208;SDS011;4639;48.862;9.188;2023-11-21T09:13:20;257.95;;;240.32;;
9208;SDS011;4639;48.862;9.188;2023-11-21T09:15:46;256.90;;;239.70;;
9208;SDS011;4639;48.862;9.188;2023-11-21T09:18:15;250.63;;;233.35;;
9208;SDS011;4639;48.862;9.188;2023-11-21T09:20:40;254.85;;;237.93;;
9208;SDS011;4639;48.862;9.188;2023-11-21T09:23:09;295.52;;;275.08;;
9208;SDS011;4639;48.862;9.188;2023-11-21T09:25:34;273.98;;;255.73;;
9208;SDS011;4639;48.862;9.188;2023-11-21T09:28:01;234.38;;;218.60;;
9208;SDS011;4639;48.862;9.188;2023-11-21T09:30:26;261.42;;;243.93;;
9208;SDS011;4639;48.862;9.188;2023-11-21T09:32:52;246.27;;;230.20;;
9208;SDS011;4639;48.862;9.188;2023-11-21T09:35:17;230.07;;;214.93;;
9208;SDS011;4639;48.862;9.188;2023-11-21T09:37:46;271.30;;;253.35;;
9208;SDS011;4639;48.862;9.188;2023-11-21T09:40:12;276.35;;;258.33;;
9208;SDS011;4639;48.862;9.188;2023-11-21T09:42:39;286.77;;;268.00;;
9208;SDS011;4639;48.862;9.188;2023-11-21T09:45:15;298.08;;;278.42;;
9208;SDS011;4639;48.862;9.188;2023-11-21T09:47:43;272.95;;;255.25;;
9208;SDS011;4639;48.862;9.188;2023-11-21T09:50:09;263.55;;;246.02;;
9208;SDS011;4639;48.862;9.188;2023-11-21T09:52:49;304.83;;;284.45;;
9208;SDS011;4639;48.862;9.188;2023-11-21T09:55:22;234.32;;;219.82;;
9208;SDS011;4639;48.862;9.188;2023-11-21T09:57:51;264.80;;;247.18;;
9208;SDS011;4639;48.862;9.188;2023-11-21T10:00:19;247.55;;;230.48;;
9208;SDS011;4639;48.862;9.188;2023-11-21T10:02:48;239.00;;;223.93;;
9208;SDS011;4639;48.862;9.188;2023-11-21T10:05:14;229.55;;;214.85;;
9208;SDS011;4639;48.862;9.188;2023-11-21T10:07:42;335.90;;;310.17;;
9208;SDS011;4639;48.862;9.188;2023-11-21T10:10:09;270.05;;;251.82;;
9208;SDS011;4639;48.862;9.188;2023-11-21T10:12:35;313.48;;;292.40;;
9208;SDS011;4639;48.862;9.188;2023-11-21T10:15:03;287.25;;;267.05;;
9208;SDS011;4639;48.862;9.188;2023-11-21T10:17:33;276.85;;;258.80;;
9208;SDS011;4639;48.862;9.188;2023-11-21T10:20:08;235.68;;;220.68;;
9208;SDS011;4639;48.862;9.188;2023-11-21T10:22:39;241.85;;;226.27;;
9208;SDS011;4639;48.862;9.188;2023-11-21T10:25:07;241.57;;;226.15;;
9208;SDS011;4639;48.862;9.188;2023-11-21T10:27:33;287.08;;;265.05;;
9208;SDS011;4639;48.862;9.188;2023-11-21T10:30:03;243.88;;;227.65;;
9208;SDS011;4639;48.862;9.188;2023-11-21T10:32:31;182.30;;;171.00;;
9208;SDS011;4639;48.862;9.188;2023-11-21T10:34:58;200.13;;;187.50;;
9208;SDS011;4639;48.862;9.188;2023-11-21T10:37:31;213.95;;;200.43;;
9208;SDS011;4639;48.862;9.188;2023-11-21T10:39:58;226.82;;;212.55;;
9208;SDS011;4639;48.862;9.188;2023-11-21T10:42:24;204.27;;;191.23;;
9208;SDS011;4639;48.862;9.188;2023-11-21T10:44:49;211.07;;;197.70;;
9208;SDS011;4639;48.862;9.188;2023-11-21T10:47:16;223.77;;;209.55;;
9208;SDS011;4639;48.862;9.188;2023-11-21T10:49:44;220.57;;;206.65;;
9208;SDS011;4639;48.862;9.188;2023-11-21T10:52:12;232.70;;;217.98;;
9208;SDS011;4639;48.862;9.188;2023-11-21T10:54:42;246.85;;;231.40;;
9208;SDS011;4639;48.862;9.188;2023-11-21T10:57:08;256.45;;;239.95;;
9208;SDS011;4639;48.862;9.188;2023-11-21T10:59:35;247.40;;;231.60;;
9208;SDS011;4639;48.862;9.188;2023-11-21T11:02:02;229.57;;;215.18;;
9208;SDS011;4639;48.862;9.188;2023-11-21T11:04:41;271.30;;;254.35;;
9208;SDS011;4639;48.862;9.188;2023-11-21T11:07:08;262.63;;;246.13;;
9208;SDS011;4639;48.862;9.188;2023-11-21T11:09:37;260.70;;;244.07;;
9208;SDS011;4639;48.862;9.188;2023-11-21T11:12:02;283.67;;;265.33;;
9208;SDS011;4639;48.862;9.188;2023-11-21T11:14:31;295.15;;;275.95;;
9208;SDS011;4639;48.862;9.188;2023-11-21T11:16:57;306.83;;;285.58;;
9208;SDS011;4639;48.862;9.188;2023-11-21T11:19:24;313.85;;;292.27;;
9208;SDS011;4639;48.862;9.188;2023-11-21T11:27:58;306.25;;;285.35;;
9208;SDS011;4639;48.862;9.188;2023-11-21T11:30:41;309.25;;;288.65;;
9208;SDS011;4639;48.862;9.188;2023-11-21T11:33:39;305.35;;;285.40;;
9208;SDS011;4639;48.862;9.188;2023-11-21T11:36:25;303.88;;;283.55;;
9208;SDS011;4639;48.862;9.188;2023-11-21T11:39:27;267.25;;;250.23;;
9208;SDS011;4639;48.862;9.188;2023-11-21T11:41:55;251.85;;;235.48;;
9208;SDS011;4639;48.862;9.188;2023-11-21T11:47:20;249.90;;;233.82;;
9208;SDS011;4639;48.862;9.188;2023-11-21T11:50:06;249.38;;;233.88;;
9208;SDS011;4639;48.862;9.188;2023-11-21T11:55:12;243.63;;;228.32;;
9208;SDS011;4639;48.862;9.188;2023-11-21T11:57:44;261.10;;;244.57;;
9208;SDS011;4639;48.862;9.188;2023-11-21T12:00:21;275.48;;;257.75;;
9208;SDS011;4639;48.862;9.188;2023-11-21T12:02:55;270.63;;;252.02;;
9208;SDS011;4639;48.862;9.188;2023-11-21T12:05:26;334.17;;;304.40;;
9208;SDS011;4639;48.862;9.188;2023-11-21T12:07:53;243.90;;;227.68;;
9208;SDS011;4639;48.862;9.188;2023-11-21T12:10:20;260.38;;;243.65;;
9208;SDS011;4639;48.862;9.188;2023-11-21T12:12:50;255.95;;;239.55;;
9208;SDS011;4639;48.862;9.188;2023-11-21T12:15:17;265.40;;;248.23;;
9208;SDS011;4639;48.862;9.188;2023-11-21T12:17:44;259.92;;;243.57;;
9208;SDS011;4639;48.862;9.188;2023-11-21T12:20:10;282.02;;;263.95;;
9208;SDS011;4639;48.862;9.188;2023-11-21T12:22:52;304.85;;;282.80;;
9208;SDS011;4639;48.862;9.188;2023-11-21T12:25:27;297.67;;;276.70;;
9208;SDS011;4639;48.862;9.188;2023-11-21T12:27:55;290.83;;;270.58;;
9208;SDS011;4639;48.862;9.188;2023-11-21T12:30:22;280.73;;;261.65;;
9208;SDS011;4639;48.862;9.188;2023-11-21T12:32:51;262.08;;;243.85;;
9208;SDS011;4639;48.862;9.188;2023-11-21T12:35:18;286.33;;;266.33;;
9208;SDS011;4639;48.862;9.188;2023-11-21T12:37:44;266.77;;;248.68;;
9208;SDS011;4639;48.862;9.188;2023-11-21T12:40:12;248.65;;;231.88;;
9208;SDS011;4639;48.862;9.188;2023-11-21T12:42:51;261.63;;;244.07;;
9208;SDS011;4639;48.862;9.188;2023-11-21T12:47:45;257.15;;;240.25;;
9208;SDS011;4639;48.862;9.188;2023-11-21T12:50:11;279.73;;;261.02;;
9208;SDS011;4639;48.862;9.188;2023-11-21T12:52:40;274.00;;;255.63;;
9208;SDS011;4639;48.862;9.188;2023-11-21T12:55:08;268.20;;;250.32;;
9208;SDS011;4639;48.862;9.188;2023-11-21T12:57:34;253.10;;;236.38;;
9208;SDS011;4639;48.862;9.188;2023-11-21T13:00:03;283.02;;;263.80;;
9208;SDS011;4639;48.862;9.188;2023-11-21T13:02:37;304.38;;;283.40;;
9208;SDS011;4639;48.862;9.188;2023-11-21T13:05:03;318.95;;;296.58;;
9208;SDS011;4639;48.862;9.188;2023-11-21T13:07:40;323.17;;;300.65;;
9208;SDS011;4639;48.862;9.188;2023-11-21T13:10:12;313.95;;;292.52;;
9208;SDS011;4639;48.862;9.188;2023-11-21T13:12:42;320.73;;;299.10;;
9208;SDS011;4639;48.862;9.188;2023-11-21T13:15:16;308.02;;;287.10;;
9208;SDS011;4639;48.862;9.188;2023-11-21T13:17:43;292.20;;;273.45;;
9208;SDS011;4639;48.862;9.188;2023-11-21T13:20:12;293.05;;;274.23;;
9208;SDS011;4639;48.862;9.188;2023-11-21T13:22:54;268.05;;;250.75;;
9208;SDS011;4639;48.862;9.188;2023-11-21T13:25:24;255.30;;;239.18;;
9208;SDS011;4639;48.862;9.188;2023-11-21T13:27:52;236.00;;;221.00;;
9208;SDS011;4639;48.862;9.188;2023-11-21T13:30:18;267.33;;;250.48;;
9208;SDS011;4639;48.862;9.188;2023-11-21T13:32:51;256.27;;;239.70;;
9208;SDS011;4639;48.862;9.188;2023-11-21T13:35:18;277.88;;;260.10;;
9208;SDS011;4639;48.862;9.188;2023-11-21T13:37:55;256.20;;;239.65;;
9208;SDS011;4639;48.862;9.188;2023-11-21T13:40:24;276.02;;;258.40;;
9208;SDS011;4639;48.862;9.188;2023-11-21T13:42:55;278.05;;;259.90;;
9208;SDS011;4639;48.862;9.188;2023-11-21T13:45:24;275.08;;;257.30;;
9208;SDS011;4639;48.862;9.188;2023-11-21T13:47:52;254.45;;;237.95;;
9208;SDS011;4639;48.862;9.188;2023-11-21T13:50:22;246.57;;;230.55;;
9208;SDS011;4639;48.862;9.188;2023-11-21T13:52:52;243.50;;;227.98;;
9208;SDS011;4639;48.862;9.188;2023-11-21T13:55:18;244.45;;;229.07;;
9208;SDS011;4639;48.862;9.188;2023-11-21T13:57:44;254.50;;;238.55;;
9208;SDS011;4639;48.862;9.188;2023-11-21T14:00:14;221.15;;;207.02;;
9208;SDS011;4639;48.862;9.188;2023-11-21T14:02:59;232.27;;;217.55;;
9208;SDS011;4639;48.862;9.188;2023-11-21T14:05:28;234.50;;;219.82;;
9208;SDS011;4639;48.862;9.188;2023-11-21T14:07:57;284.38;;;265.30;;
9208;SDS011;4639;48.862;9.188;2023-11-21T14:10:32;217.13;;;203.63;;
9208;SDS011;4639;48.862;9.188;2023-11-21T14:13:08;239.18;;;224.38;;
9208;SDS011;4639;48.862;9.188;2023-11-21T14:15:38;250.07;;;234.45;;
9208;SDS011;4639;48.862;9.188;2023-11-21T14:18:08;267.63;;;250.98;;
9208;SDS011;4639;48.862;9.188;2023-11-21T14:20:38;271.80;;;254.57;;
9208;SDS011;4639;48.862;9.188;2023-11-21T14:23:05;281.02;;;263.35;;
9208;SDS011;4639;48.862;9.188;2023-11-21T14:25:35;309.08;;;289.38;;
9208;SDS011;4639;48.862;9.188;2023-11-21T14:28:07;294.83;;;275.77;;
9208;SDS011;4639;48.862;9.188;2023-11-21T14:30:33;249.55;;;233.80;;
9208;SDS011;4639;48.862;9.188;2023-11-21T14:33:01;255.57;;;239.55;;
9208;SDS011;4639;48.862;9.188;2023-11-21T14:35:27;263.73;;;246.95;;
9208;SDS011;4639;48.862;9.188;2023-11-21T14:37:55;250.15;;;234.77;;